createdAt,value
2018-11-20T00:01:39.241Z,139.17
2018-11-20T00:04:09.004Z,134.27
2018-11-20T00:06:38.831Z,131.70
2018-11-20T00:09:09.165Z,136.43
2018-11-20T00:11:39.257Z,142.57
2018-11-20T00:14:09.646Z,134.93
2018-11-20T00:16:39.308Z,132.43
2018-11-20T00:19:09.310Z,141.17
2018-11-20T00:21:39.153Z,143.37
2018-11-20T00:24:09.326Z,140.13
2018-11-20T00:26:39.160Z,137.73
2018-11-20T00:29:09.171Z,141.90
2018-11-20T00:31:39.250Z,137.97
2018-11-20T00:34:08.597Z,140.10
2018-11-20T00:36:38.209Z,138.33
2018-11-20T00:39:08.249Z,136.17
2018-11-20T00:41:37.932Z,137.10
2018-11-20T00:44:08.048Z,142.40
2018-11-20T00:46:37.798Z,138.37
2018-11-20T00:49:07.722Z,141.10
2018-11-20T00:51:37.392Z,135.33
2018-11-20T00:54:07.123Z,137.07
2018-11-20T00:56:37.018Z,143.53
2018-11-20T00:59:07.340Z,136.20
2018-11-20T01:01:37.326Z,147.87
2018-11-20T01:04:07.414Z,147.60
2018-11-20T01:06:37.051Z,144.50
2018-11-20T01:09:07.556Z,140.60
2018-11-20T01:11:37.525Z,146.77
2018-11-20T01:14:07.735Z,151.30
2018-11-20T01:16:37.325Z,152.93
2018-11-20T01:19:07.877Z,144.17
2018-11-20T01:21:37.958Z,146.77
2018-11-20T01:24:08.114Z,148.43
2018-11-20T01:26:38.444Z,149.57
2018-11-20T01:29:08.351Z,156.67
2018-11-20T01:31:38.618Z,157.80
2018-11-20T01:34:08.777Z,154.97
2018-11-20T01:36:38.865Z,163.73
2018-11-20T01:39:08.851Z,170.33
2018-11-20T01:41:39.012Z,170.70
2018-11-20T01:44:09.655Z,162.27
2018-11-20T01:46:39.487Z,163.87
2018-11-20T01:49:09.488Z,174.17
2018-11-20T01:51:39.363Z,175.17
2018-11-20T01:54:09.133Z,199.80
2018-11-20T01:56:39.529Z,194.30
2018-11-20T01:59:09.273Z,190.60
2018-11-20T02:01:39.350Z,198.50
2018-11-20T02:04:09.360Z,195.57
2018-11-20T02:06:39.441Z,189.47
2018-11-20T02:09:09.313Z,189.07
2018-11-20T02:11:39.081Z,187.80
2018-11-20T02:14:09.317Z,176.50
2018-11-20T02:16:39.209Z,180.70
2018-11-20T02:19:09.205Z,184.40
2018-11-20T02:21:39.644Z,166.77
2018-11-20T02:24:09.443Z,164.37
2018-11-20T02:26:40.075Z,172.63
2018-11-20T02:29:10.125Z,181.60
2018-11-20T02:31:40.321Z,183.33
2018-11-20T02:34:10.333Z,208.03
2018-11-20T02:36:40.363Z,219.13
2018-11-20T02:39:10.480Z,216.60
2018-11-20T02:41:40.592Z,217.10
2018-11-20T02:44:10.361Z,230.03
2018-11-20T02:46:40.756Z,218.73
2018-11-20T02:49:10.753Z,231.13
2018-11-20T02:51:40.965Z,233.13
2018-11-20T02:54:11.042Z,234.30
2018-11-20T02:56:41.328Z,240.47
2018-11-20T02:59:11.436Z,245.63
2018-11-20T03:01:41.486Z,249.37
2018-11-20T03:04:11.352Z,233.83
2018-11-20T03:06:41.653Z,223.30
2018-11-20T03:09:11.693Z,221.97
2018-11-20T03:11:41.654Z,210.93
2018-11-20T03:14:11.846Z,199.13
2018-11-20T03:16:41.900Z,184.57
2018-11-20T03:19:11.771Z,180.90
2018-11-20T03:21:41.788Z,165.63
2018-11-20T03:24:11.837Z,165.37
2018-11-20T03:26:41.756Z,156.80
2018-11-20T03:29:11.910Z,147.90
2018-11-20T03:31:41.560Z,150.67
2018-11-20T03:34:11.832Z,147.03
2018-11-20T03:36:41.885Z,152.47
2018-11-20T03:39:11.691Z,142.90
2018-11-20T03:41:41.311Z,151.53
2018-11-20T03:44:11.052Z,150.17
2018-11-20T03:46:41.588Z,148.83
2018-11-20T03:49:11.764Z,161.90
2018-11-20T03:51:41.202Z,145.33
2018-11-20T03:54:11.183Z,136.83
2018-11-20T03:56:41.073Z,143.77
2018-11-20T03:59:10.791Z,138.77
2018-11-20T04:01:40.835Z,142.00
2018-11-20T04:04:10.634Z,136.07
2018-11-20T04:06:40.640Z,151.00
2018-11-20T04:09:10.360Z,145.87
2018-11-20T04:11:40.580Z,143.07
2018-11-20T04:14:10.819Z,121.03
2018-11-20T04:16:40.420Z,122.07
2018-11-20T04:19:10.383Z,119.10
2018-11-20T04:21:40.242Z,116.63
2018-11-20T04:24:10.153Z,120.10
2018-11-20T04:26:39.829Z,124.73
2018-11-20T04:29:10.068Z,117.27
2018-11-20T04:31:40.169Z,124.27
2018-11-20T04:34:10.034Z,123.63
2018-11-20T04:36:40.141Z,122.90
2018-11-20T04:39:10.149Z,123.63
2018-11-20T04:41:40.286Z,122.83
2018-11-20T04:44:10.275Z,119.73
2018-11-20T04:46:40.413Z,120.07
2018-11-20T04:49:10.109Z,120.93
2018-11-20T04:51:40.246Z,116.97
2018-11-20T04:54:10.227Z,117.60
2018-11-20T04:56:40.379Z,118.77
2018-11-20T04:59:09.882Z,122.87
2018-11-20T05:01:40.206Z,118.07
2018-11-20T05:04:10.051Z,117.07
2018-11-20T05:06:39.846Z,119.90
2018-11-20T05:09:09.962Z,122.53
2018-11-20T05:11:40.167Z,123.20
2018-11-20T05:14:09.981Z,118.83
2018-11-20T05:16:39.897Z,120.43
2018-11-20T05:19:10.061Z,119.00
2018-11-20T05:21:40.241Z,119.47
2018-11-20T05:24:09.902Z,117.70
2018-11-20T05:26:40.074Z,117.97
2018-11-20T05:29:09.983Z,121.90
2018-11-20T05:31:40.161Z,117.07
2018-11-20T05:34:10.250Z,117.90
2018-11-20T05:36:40.313Z,119.03
2018-11-20T05:39:10.387Z,113.43
2018-11-20T05:41:40.377Z,117.93
2018-11-20T05:44:10.568Z,114.23
2018-11-20T05:46:41.707Z,111.60
2018-11-20T05:49:11.692Z,111.40
2018-11-20T05:51:42.698Z,123.53
2018-11-20T05:54:12.257Z,111.43
2018-11-20T05:56:42.321Z,110.67
2018-11-20T05:59:16.492Z,102.90
2018-11-20T06:01:46.076Z,103.83
2018-11-20T06:04:17.026Z,107.00
2018-11-20T06:06:47.721Z,109.40
2018-11-20T06:09:17.131Z,105.47
2018-11-20T06:11:47.015Z,110.13
2018-11-20T06:14:17.068Z,109.27
2018-11-20T06:16:47.350Z,110.57
2018-11-20T06:19:16.882Z,106.43
2018-11-20T06:21:47.009Z,104.77
2018-11-20T06:24:16.961Z,108.57
2018-11-20T06:26:47.020Z,102.03
2018-11-20T06:29:17.182Z,99.93
2018-11-20T06:31:46.871Z,103.03
2018-11-20T06:34:16.945Z,103.63
2018-11-20T06:36:47.631Z,102.37
2018-11-20T06:39:17.787Z,104.33
2018-11-20T06:41:47.754Z,99.10
2018-11-20T06:44:17.952Z,99.47
2018-11-20T06:46:48.351Z,97.77
2018-11-20T06:49:18.430Z,97.17
2018-11-20T06:51:48.574Z,93.23
2018-11-20T06:54:18.921Z,94.07
2018-11-20T06:56:48.466Z,96.37
2018-11-20T06:59:18.100Z,94.57
2018-11-20T07:01:48.493Z,92.77
2018-11-20T07:04:18.317Z,90.80
2018-11-20T07:06:48.328Z,88.97
2018-11-20T07:09:17.753Z,92.43
2018-11-20T07:11:48.819Z,92.07
2018-11-20T07:14:18.705Z,94.33
2018-11-20T07:16:48.697Z,102.00
2018-11-20T07:19:18.735Z,90.97
2018-11-20T07:21:48.839Z,89.93
2018-11-20T07:24:18.952Z,85.97
2018-11-20T07:26:48.951Z,78.67
2018-11-20T07:29:19.060Z,76.70
2018-11-20T07:31:49.143Z,77.23
2018-11-20T07:34:18.700Z,75.37
2018-11-20T07:36:48.294Z,68.57
2018-11-20T07:39:18.196Z,69.27
2018-11-20T07:41:47.956Z,69.67
2018-11-20T07:44:18.136Z,71.33
2018-11-20T07:46:48.094Z,73.40
2018-11-20T07:49:17.925Z,72.40
2018-11-20T07:51:47.922Z,75.10
2018-11-20T07:54:17.734Z,77.83
2018-11-20T07:56:47.862Z,79.77
